22:04
Airports
History
Links
Donate
Help keep this website running!
PayPal
Bitcoin
This page is community maintained. The information is intended for PC simulator navigation or reference.
Always use approved charts for navigation.
SSAF
Aeroclube de Foz do lguacu
Aeroclube de Foz do lguacu (SSAF)
Foz do Iguaçu, Parana, Brazil (85870)
4
Lat/Lng:25° 22' 10" S / 54° 28' 14" W
-25.369444 / -54.470556
Elevation:840'ft / 256mMSL
ID / ICAO:SSAF
Runways:1
Longest:14-32
Grass 1,014m / 3,326ft
Nearby Weather22:00 GMT 2017-10-16
Nearby weather at SBFI, Foz Do Iguacu located 15.7 nautical miles from SSAF
Altimeter: 29.91
Visibility: 6.2 statute miles
Wind: 6 knots (from 140°)
Temp: 28°c / 82°f
Humidity: 65.8%

METAR: SBFI 162200Z 14006KT CAVOK 28/21 Q1013

(Powered by phpweather)
Runway 14 / 32
Dimensions:1013.9 x 29.9m 3326' x 98'ft
Surface:Grass
Runway 14 [A]Runway 32 [B]
Heading:127°TH 307°TH
Lat:
Lng:
25° 21' 59.94"S
54° 28' 28.46"W
25° 22' 20.06"S
54° 27' 59.54"W
User Notes and Comments
25° 22' 10" S / 54° 28' 14" W
Distance To
Airport ID:
Nearby Airports
4 Fazenda Paulista 4.1 NM
SNUA ESE 112°
(C) ITAIPU 9.7 NM
SGIB WSW 254°
(U) ESTANCIA HERCULES 10.2 NM
SSFE SW 231°
(C) Sao Miguel Do Iguacu 12.8 NM
SSMY E 96°
(C) Foz Do Iguacu 15.7 NM
SBFI ( WX ) S 183°
(C) GUARANI INTL 24.0 NM
SGES ( WX ) WSW 255°
(C) Medianeira 25.3 NM
SSMD E 80°
VFR Chart
Flight Planning at SkyVector.com